Time;durP1;ratioP1;P1;durP2;ratioP2;P2;SDS_P1;SDS_P2;PMS_P1;PMS_P2;Temp;Humidity;BMP_temperature;BMP_pressure;BME280_temperature;BME280_humidity;BME280_pressure;Samples;Min_cycle;Max_cycle;Signal;HPM_P1;HPM_P2
2020/12/01 00:02:14;;;;;;;32.13;17.88;;;;;;;12.80;70.30;101886.38;5033187;28;20065;-47
2020/12/01 00:04:40;;;;;;;16.33;13.70;;;;;;;12.77;70.03;101873.38;5033669;28;20359;-47
2020/12/01 00:07:05;;;;;;;22.70;15.20;;;;;;;12.74;69.94;101861.19;5033375;28;20057;-51
2020/12/01 00:09:31;;;;;;;13.88;11.80;;;;;;;12.79;70.04;101874.78;5032479;28;20028;-47
2020/12/01 00:11:56;;;;;;;13.82;12.52;;;;;;;12.64;70.25;101867.13;5033588;28;20029;-46
2020/12/01 00:14:21;;;;;;;13.93;11.13;;;;;;;12.57;70.76;101869.06;5033361;28;20064;-47
2020/12/01 00:16:47;;;;;;;17.70;9.02;;;;;;;12.60;71.03;101873.97;5033604;28;20088;-48
2020/12/01 00:19:13;;;;;;;11.45;10.30;;;;;;;12.70;71.12;101860.00;5017745;28;20045;-50
2020/12/01 00:21:39;;;;;;;12.77;10.32;;;;;;;12.72;70.92;101860.59;5033237;28;20029;-48
2020/12/01 00:24:04;;;;;;;15.38;13.75;;;;;;;12.70;70.98;101862.69;5022822;28;20061;-50
2020/12/01 00:26:30;;;;;;;18.60;13.23;;;;;;;12.64;71.16;101856.34;5013076;28;20057;-45
2020/12/01 00:28:55;;;;;;;11.95;10.27;;;;;;;12.72;70.89;101860.59;5010639;28;20116;-45
2020/12/01 00:31:21;;;;;;;15.18;12.48;;;;;;;12.77;70.83;101855.34;5014031;28;20061;-48
2020/12/01 00:33:47;;;;;;;21.23;16.45;;;;;;;12.72;71.35;101857.91;5014794;28;20053;-48
2020/12/01 00:36:13;;;;;;;22.05;17.13;;;;;;;12.61;71.32;101858.66;5015767;28;20044;-50
2020/12/01 00:38:41;;;;;;;17.35;12.75;;;;;;;12.65;71.21;101857.97;5015309;28;20116;-47
2020/12/01 00:41:06;;;;;;;25.30;15.35;;;;;;;12.59;71.63;101871.53;5023785;28;20032;-47
2020/12/01 00:43:32;;;;;;;25.80;12.88;;;;;;;12.56;71.28;101872.78;5025009;28;20038;-47
2020/12/01 00:45:57;;;;;;;13.45;11.50;;;;;;;12.54;71.92;101880.28;5033032;28;20484;-46
2020/12/01 00:48:23;;;;;;;15.57;12.88;;;;;;;12.59;70.98;101885.00;5032507;28;20037;-47
2020/12/01 00:50:48;;;;;;;16.88;12.07;;;;;;;12.57;71.33;101881.66;5014337;28;20066;-50
2020/12/01 00:53:14;;;;;;;16.10;13.38;;;;;;;12.53;71.45;101872.41;5016056;28;20083;-45
2020/12/01 00:55:40;;;;;;;17.08;12.95;;;;;;;12.54;71.40;101868.69;5014997;28;20088;-47
2020/12/01 00:58:05;;;;;;;13.00;11.35;;;;;;;12.53;70.84;101862.47;5016721;28;20053;-49
2020/12/01 01:00:31;;;;;;;14.77;10.68;;;;;;;12.62;70.27;101865.69;5030965;28;20103;-48
2020/12/01 01:02:57;;;;;;;11.38;10.07;;;;;;;12.59;69.98;101860.78;5023520;28;20034;-50
2020/12/01 01:05:22;;;;;;;14.35;12.40;;;;;;;12.56;70.00;101869.28;5026806;28;20029;-51
2020/12/01 01:07:49;;;;;;;19.80;13.57;;;;;;;12.58;70.51;101859.13;5026513;28;20512;-51
2020/12/01 01:10:18;;;;;;;15.05;13.50;;;;;;;12.43;70.17;101868.41;5031463;28;20133;-48
2020/12/01 01:12:44;;;;;;;19.60;15.88;;;;;;;12.36;70.59;101861.41;5031975;28;20068;-48
2020/12/01 01:15:10;;;;;;;15.88;14.20;;;;;;;12.36;71.31;101864.97;5031590;28;20056;-48
2020/12/01 01:17:35;;;;;;;13.63;12.30;;;;;;;12.44;70.65;101869.22;5032367;28;20056;-51
2020/12/01 01:20:01;;;;;;;12.05;10.63;;;;;;;12.38;70.89;101870.94;5031718;28;20025;-48
2020/12/01 01:22:26;;;;;;;15.25;13.68;;;;;;;12.49;70.96;101858.59;5032090;28;20071;-48
2020/12/01 01:24:52;;;;;;;11.10;10.00;;;;;;;12.46;70.93;101849.13;5021220;28;20033;-47
2020/12/01 01:27:17;;;;;;;11.82;9.88;;;;;;;12.53;70.90;101851.72;5031511;28;20046;-47
2020/12/01 01:29:43;;;;;;;13.25;10.90;;;;;;;12.55;71.71;101846.94;5032499;28;20072;-47
2020/12/01 01:32:08;;;;;;;13.25;9.80;;;;;;;12.43;71.68;101838.81;5032180;28;20045;-50
2020/12/01 01:34:33;;;;;;;14.80;8.30;;;;;;;12.45;71.55;101836.72;5032160;28;20034;-48
2020/12/01 01:36:59;;;;;;;12.52;10.77;;;;;;;12.54;70.68;101839.91;5031950;28;20025;-47
2020/12/01 01:39:24;;;;;;;18.98;9.38;;;;;;;12.50;70.22;101844.13;5031568;28;20092;-46
2020/12/01 01:41:50;;;;;;;12.10;7.88;;;;;;;12.37;70.76;101846.94;5031966;28;20032;-46
2020/12/01 01:44:17;;;;;;;9.23;8.27;;;;;;;12.29;71.09;101845.38;5031647;28;20029;-49
2020/12/01 01:46:47;;;;;;;12.20;10.18;;;;;;;12.30;71.49;101836.25;5031572;28;20034;-48
2020/12/01 01:49:18;;;;;;;9.55;7.35;;;;;;;12.33;71.37;101822.38;5031596;28;20466;-49
2020/12/01 01:51:52;;;;;;;10.70;7.07;;;;;;;12.33;71.13;101833.13;5032244;28;20026;-48
2020/12/01 01:54:19;;;;;;;12.25;8.80;;;;;;;12.33;71.62;101838.50;5023012;28;20124;-48
2020/12/01 01:56:49;;;;;;;22.58;9.20;;;;;;;12.36;71.42;101834.53;5031461;28;20033;-46
2020/12/01 01:59:15;;;;;;;12.60;9.30;;;;;;;12.38;71.14;101835.97;5063819;28;20040;-46
2020/12/01 02:01:41;;;;;;;12.40;8.68;;;;;;;12.40;70.69;101825.81;5031669;28;20030;-46
2020/12/01 02:04:11;;;;;;;7.95;6.93;;;;;;;12.36;70.67;101835.38;5031634;28;20045;-46
2020/12/01 02:06:39;;;;;;;17.60;7.65;;;;;;;12.26;70.77;101832.38;5031697;28;20041;-46
2020/12/01 02:09:38;;;;;;;11.95;7.65;;;;;;;12.21;71.05;101841.09;5031021;28;20419;-47
2020/12/01 02:12:05;;;;;;;8.20;7.18;;;;;;;12.21;71.08;101840.28;5028570;28;20053;-48
2020/12/01 02:14:49;;;;;;;9.60;7.60;;;;;;;12.19;71.45;101842.38;5014048;28;20037;-50
2020/12/01 02:17:35;;;;;;;11.07;7.75;;;;;;;12.17;71.08;101842.59;5023514;28;20042;-50
2020/12/01 02:20:13;;;;;;;12.52;8.45;;;;;;;12.27;71.15;101845.59;5015077;28;20034;-51
2020/12/01 02:22:50;;;;;;;12.55;9.82;;;;;;;12.13;71.44;101837.88;5024114;28;20073;-46
2020/12/01 02:25:18;;;;;;;14.15;8.75;;;;;;;12.07;71.33;101839.59;5031392;28;20103;-48
2020/12/01 02:27:51;;;;;;;16.88;8.70;;;;;;;12.21;71.30;101834.91;5031385;28;20033;-48
2020/12/01 02:30:16;;;;;;;7.20;6.50;;;;;;;12.21;70.79;101834.91;5031646;28;20079;-47
2020/12/01 02:32:42;;;;;;;8.65;6.80;;;;;;;12.27;70.79;101824.09;5031559;28;20030;-47
2020/12/01 02:35:11;;;;;;;9.25;7.28;;;;;;;12.23;70.73;101832.81;5031104;28;20029;-48
2020/12/01 02:37:40;;;;;;;6.28;5.45;;;;;;;12.21;70.91;101826.84;5031385;28;20489;-46
2020/12/01 02:40:09;;;;;;;6.47;4.70;;;;;;;12.16;71.32;101835.56;5031313;28;20041;-47
2020/12/01 02:42:35;;;;;;;7.55;5.82;;;;;;;12.02;71.81;101821.44;5031755;28;20724;-46
2020/12/01 02:45:00;;;;;;;5.97;3.95;;;;;;;12.02;72.06;101810.69;5031301;28;20033;-52
2020/12/01 02:47:27;;;;;;;5.90;4.68;;;;;;;12.01;72.35;101817.13;5031586;28;20033;-51
2020/12/01 02:49:53;;;;;;;9.95;5.10;;;;;;;12.05;72.03;101814.81;5031871;28;20033;-46
2020/12/01 02:52:20;;;;;;;13.15;4.72;;;;;;;12.09;72.07;101816.00;5034741;28;20037;-48
2020/12/01 02:54:50;;;;;;;10.15;6.40;;;;;;;12.14;72.45;101815.34;5030361;28;20040;-50
2020/12/01 02:57:15;;;;;;;9.07;6.15;;;;;;;12.12;71.99;101820.13;5035084;28;20037;-46
2020/12/01 02:59:41;;;;;;;4.95;4.45;;;;;;;12.25;71.73;101819.97;5034993;28;20108;-48
2020/12/01 03:02:06;;;;;;;4.90;4.47;;;;;;;12.21;71.56;101808.84;5034772;28;20041;-50
2020/12/01 03:04:32;;;;;;;8.82;4.88;;;;;;;12.19;71.52;101807.44;5034653;28;20034;-52
2020/12/01 03:06:57;;;;;;;10.52;5.28;;;;;;;12.03;72.32;101806.97;5034578;28;20057;-52
2020/12/01 03:09:22;;;;;;;6.60;4.40;;;;;;;12.01;72.43;101794.78;5034423;28;20037;-52
2020/12/01 03:11:49;;;;;;;10.77;5.53;;;;;;;12.07;71.78;101792.03;5034502;28;20087;-55
2020/12/01 03:14:16;;;;;;;6.53;4.15;;;;;;;12.03;72.40;101804.28;5034800;28;20073;-50
2020/12/01 03:16:41;;;;;;;6.40;5.22;;;;;;;12.05;71.92;101799.50;5034625;28;20484;-47
2020/12/01 03:19:07;;;;;;;5.93;4.68;;;;;;;12.16;71.59;101786.38;5034400;28;20029;-47
2020/12/01 03:21:32;;;;;;;10.57;5.20;;;;;;;12.14;70.97;101785.78;5033261;28;20424;-47
2020/12/01 03:23:57;;;;;;;9.02;5.20;;;;;;;12.01;71.07;101786.72;5034735;28;20034;-49
2020/12/01 03:26:23;;;;;;;8.98;6.45;;;;;;;11.89;71.66;101789.31;5034507;28;20458;-48
2020/12/01 03:28:49;;;;;;;10.07;4.55;;;;;;;11.82;72.09;101785.88;5034512;28;20045;-51
2020/12/01 03:31:16;;;;;;;8.50;5.22;;;;;;;11.87;72.22;101786.03;5034352;28;20033;-46
2020/12/01 03:33:42;;;;;;;7.95;5.75;;;;;;;11.90;72.08;101772.13;5034511;28;20041;-46
2020/12/01 03:36:08;;;;;;;8.40;5.47;;;;;;;12.04;72.29;101760.25;5034187;28;20536;-46
2020/12/01 03:38:34;;;;;;;5.82;4.65;;;;;;;12.02;72.55;101758.81;5034568;28;20083;-48
2020/12/01 03:41:01;;;;;;;7.60;5.82;;;;;;;11.92;72.71;101756.63;5033765;28;20036;-49
2020/12/01 03:43:27;;;;;;;6.38;5.75;;;;;;;12.01;72.85;101749.94;5034731;28;20497;-45
2020/12/01 03:45:53;;;;;;;9.45;5.30;;;;;;;12.18;72.43;101743.94;5033851;28;20021;-47
2020/12/01 03:48:18;;;;;;;7.63;5.00;;;;;;;12.16;72.38;101737.97;5030934;28;20037;-49
2020/12/01 03:50:43;;;;;;;8.05;4.78;;;;;;;12.23;71.76;101741.41;5025365;28;20395;-48
2020/12/01 03:53:09;;;;;;;7.05;5.45;;;;;;;12.16;72.13;101735.28;5022624;28;20050;-46
2020/12/01 03:55:34;;;;;;;6.25;5.43;;;;;;;12.06;73.16;101731.28;5034144;28;20033;-46
2020/12/01 03:58:00;;;;;;;5.45;4.28;;;;;;;12.02;72.97;101737.31;5033935;28;20045;-53
2020/12/01 04:00:27;;;;;;;5.60;4.65;;;;;;;12.07;73.19;101730.22;5022017;28;20387;-47
2020/12/01 04:02:54;;;;;;;9.18;5.85;;;;;;;12.07;72.80;101735.56;5033539;28;20090;-46
2020/12/01 04:05:22;;;;;;;7.50;4.75;;;;;;;12.25;72.82;101728.53;5032629;28;20034;-47
2020/12/01 04:07:48;;;;;;;6.68;5.07;;;;;;;12.26;72.75;101728.31;5033554;28;20545;-46
2020/12/01 04:10:16;;;;;;;8.38;5.43;;;;;;;12.13;73.04;101720.41;5033732;28;20382;-48
2020/12/01 04:12:43;;;;;;;7.30;4.90;;;;;;;12.11;73.42;101727.88;5028727;28;20038;-47
2020/12/01 04:15:09;;;;;;;5.80;4.93;;;;;;;12.11;73.63;101727.88;5032233;28;20390;-51
2020/12/01 04:17:34;;;;;;;4.75;4.00;;;;;;;12.19;73.21;101730.28;5026568;28;20482;-46
2020/12/01 04:20:00;;;;;;;5.35;4.57;;;;;;;12.12;72.90;101728.72;5033552;28;20029;-51
2020/12/01 04:22:25;;;;;;;6.35;4.50;;;;;;;12.15;72.88;101722.88;5033225;28;20076;-47
2020/12/01 04:24:51;;;;;;;7.95;4.20;;;;;;;11.99;73.08;101718.94;5033076;28;20042;-49
2020/12/01 04:27:17;;;;;;;5.55;5.00;;;;;;;12.02;72.82;101705.88;5033018;28;20048;-51
2020/12/01 04:29:43;;;;;;;6.95;5.57;;;;;;;11.96;72.75;101708.66;5033072;28;20037;-48
2020/12/01 04:32:08;;;;;;;11.82;7.03;;;;;;;11.93;72.86;101720.66;5033120;28;20086;-48
2020/12/01 04:34:34;;;;;;;11.60;7.63;;;;;;;11.96;72.95;101720.22;5032518;28;20056;-48
2020/12/01 04:37:02;;;;;;;11.38;7.38;;;;;;;12.00;72.56;101713.34;5032910;28;20026;-48
2020/12/01 04:39:28;;;;;;;9.50;7.95;;;;;;;12.01;72.72;101717.69;5033113;28;20474;-51
2020/12/01 04:41:54;;;;;;;11.68;7.15;;;;;;;11.93;72.74;101723.34;5032990;28;20036;-46
2020/12/01 04:44:33;;;;;;;8.45;5.65;;;;;;;11.91;73.08;101717.38;5031882;28;20458;-47
2020/12/01 04:47:01;;;;;;;8.70;5.97;;;;;;;11.90;73.49;101719.25;5032764;28;20036;-46
2020/12/01 04:49:33;;;;;;;8.07;6.38;;;;;;;11.93;73.30;101712.59;5011547;28;20065;-49
2020/12/01 04:52:01;;;;;;;7.40;5.28;;;;;;;11.91;73.59;101712.00;5033137;28;20037;-46
2020/12/01 04:54:45;;;;;;;10.63;6.90;;;;;;;12.02;73.37;101707.75;5018459;28;20041;-50
2020/12/01 04:57:44;;;;;;;8.32;7.03;;;;;;;11.96;73.56;101705.97;5032664;28;20033;-51
2020/12/01 05:00:23;;;;;;;14.57;7.07;;;;;;;12.16;73.29;101708.41;5032245;28;20517;-46
2020/12/01 05:03:04;;;;;;;13.13;6.10;;;;;;;12.10;73.47;101716.31;5032659;28;20176;-48
2020/12/01 05:05:58;;;;;;;6.65;5.35;;;;;;;12.06;73.81;101711.59;5022626;28;20076;-46
2020/12/01 05:08:48;;;;;;;14.85;6.35;;;;;;;12.15;73.25;101712.97;5032116;28;20143;-46
2020/12/01 05:11:18;;;;;;;5.80;5.00;;;;;;;12.18;73.32;101709.81;5029298;28;20030;-47
2020/12/01 05:13:51;;;;;;;8.77;5.30;;;;;;;12.05;73.96;101712.66;5019765;28;20099;-47
2020/12/01 05:16:26;;;;;;;4.80;4.32;;;;;;;12.19;73.65;101707.97;5025782;28;20044;-51
2020/12/01 05:18:51;;;;;;;13.15;5.50;;;;;;;12.17;73.52;101704.69;5032630;28;20037;-49
2020/12/01 05:21:23;;;;;;;15.55;6.38;;;;;;;12.11;73.74;101706.38;5032220;28;20381;-46
2020/12/01 05:23:49;;;;;;;;;;;;;;;11.99;74.17;101700.97;5032789;28;20048;-48
2020/12/01 05:26:18;;;;;;;6.53;5.07;;;;;;;12.03;74.36;101709.41;5032133;28;19912;-46
2020/12/01 05:28:50;;;;;;;9.63;4.93;;;;;;;12.10;74.61;101710.13;5032254;28;20136;-49
2020/12/01 05:31:18;;;;;;;15.02;4.22;;;;;;;12.16;74.48;101713.78;5031430;28;20347;-47
2020/12/01 05:33:43;;;;;;;9.25;5.35;;;;;;;12.23;74.05;101717.19;5032128;28;20367;-47
2020/12/01 05:36:17;;;;;;;11.02;9.32;;;;;;;12.20;73.67;101720.34;5032028;28;20036;-47
2020/12/01 05:38:43;;;;;;;11.43;6.53;;;;;;;12.12;74.04;101731.41;5032210;28;20045;-47
2020/12/01 05:41:37;;;;;;;26.40;9.02;;;;;;;12.25;73.72;101724.00;5031871;28;20095;-51
2020/12/01 05:44:22;;;;;;;6.55;5.93;;;;;;;12.35;73.46;101712.69;5029954;28;20049;-48
2020/12/01 05:47:03;;;;;;;9.18;6.53;;;;;;;12.34;73.98;101718.31;5031954;28;20022;-47
2020/12/01 05:49:31;;;;;;;10.17;4.50;;;;;;;12.32;73.82;101713.16;5017691;28;20164;-48
2020/12/01 05:52:25;;;;;;;8.18;6.07;;;;;;;12.32;73.95;101715.03;5023141;28;20037;-48
2020/12/01 05:55:03;;;;;;;11.85;9.70;;;;;;;12.25;74.01;101715.94;5023301;28;20489;-50
2020/12/01 05:57:29;;;;;;;11.15;6.55;;;;;;;12.22;73.93;101719.06;5031635;28;20044;-49
2020/12/01 06:00:15;;;;;;;8.23;5.82;;;;;;;12.25;73.95;101717.78;5031481;28;20083;-48
2020/12/01 06:02:40;;;;;;;10.23;5.57;;;;;;;12.16;74.05;101725.34;5021028;28;20038;-50
2020/12/01 06:05:19;;;;;;;25.35;8.45;;;;;;;12.09;74.53;101725.41;5013425;28;20052;-46
2020/12/01 06:07:47;;;;;;;7.60;6.82;;;;;;;12.16;74.03;101721.84;5030208;28;20502;-46
2020/12/01 06:10:31;;;;;;;9.40;6.35;;;;;;;12.39;73.49;101708.50;5030051;28;20076;-51
2020/12/01 06:13:22;;;;;;;8.23;6.90;;;;;;;12.40;74.07;101704.78;5031518;28;20042;-46
2020/12/01 06:16:26;;;;;;;22.02;6.90;;;;;;;12.28;74.23;101706.59;5020505;28;20487;-47
2020/12/01 06:19:09;;;;;;;11.65;6.47;;;;;;;12.28;74.57;101706.59;5023902;28;20053;-46
2020/12/01 06:21:46;;;;;;;8.77;6.68;;;;;;;12.39;74.22;101713.06;5019265;28;20025;-47
2020/12/01 06:24:30;;;;;;;11.30;7.10;;;;;;;12.45;74.31;101718.34;5032106;28;20034;-47
2020/12/01 06:27:02;;;;;;;9.57;7.38;;;;;;;12.54;74.12;101707.28;5035301;28;20482;-46
2020/12/01 06:29:46;;;;;;;;;;;;;;;12.60;74.52;101709.84;5021386;28;20032;-46
2020/12/01 06:32:33;;;;;;;11.18;6.82;;;;;;;12.56;74.51;101703.31;5035209;28;19921;-47
2020/12/01 06:35:30;;;;;;;9.10;6.22;;;;;;;12.52;74.27;101704.81;5035228;28;20041;-51
2020/12/01 06:38:13;;;;;;;10.90;8.95;;;;;;;12.47;74.62;101708.19;4997642;28;20518;-52
2020/12/01 06:40:42;;;;;;;15.75;6.43;;;;;;;12.48;75.14;101701.78;5023793;28;20033;-48
2020/12/01 06:43:36;;;;;;;10.50;6.30;;;;;;;12.55;74.84;101701.69;5028354;28;20045;-45
2020/12/01 06:46:01;;;;;;;15.05;7.53;;;;;;;12.56;74.42;101694.41;5029045;28;20099;-49
2020/12/01 06:48:27;;;;;;;17.80;8.32;;;;;;;12.56;74.60;101697.91;5026452;28;20417;-48
2020/12/01 06:50:55;;;;;;;11.07;8.05;;;;;;;12.60;74.95;101684.84;5034829;28;20120;-48
2020/12/01 06:53:33;;;;;;;9.48;6.85;;;;;;;12.63;74.82;101690.56;5032889;28;20465;-49
2020/12/01 06:56:13;;;;;;;8.80;7.90;;;;;;;12.68;74.47;101690.69;5034733;28;20444;-50
2020/12/01 06:58:41;;;;;;;8.00;5.53;;;;;;;12.62;75.12;101690.78;5035089;28;20119;-46
2020/12/01 07:01:31;;;;;;;11.55;7.72;;;;;;;12.64;74.54;101686.84;5034322;28;20095;-52
2020/12/01 07:04:04;;;;;;;8.30;6.75;;;;;;;12.64;75.44;101686.00;5027093;28;20042;-47
2020/12/01 07:06:30;;;;;;;11.50;8.13;;;;;;;12.62;75.26;101688.09;5021731;28;20035;-50
2020/12/01 07:09:19;;;;;;;12.98;7.38;;;;;;;12.66;74.95;101687.44;5028959;28;20129;-47
2020/12/01 07:12:12;;;;;;;12.65;8.32;;;;;;;12.59;75.36;101691.28;5025176;28;20071;-46
2020/12/01 07:14:44;;;;;;;13.07;8.30;;;;;;;12.72;74.88;101688.38;5034808;28;20033;-47
2020/12/01 07:17:28;;;;;;;23.98;14.43;;;;;;;12.57;75.55;101687.97;5034618;28;20377;-47
2020/12/01 07:20:00;;;;;;;14.82;11.63;;;;;;;12.61;75.19;101691.88;5034079;28;20029;-46
2020/12/01 07:22:46;;;;;;;12.95;8.55;;;;;;;12.63;74.78;101693.25;5019787;28;20048;-49
2020/12/01 07:25:36;;;;;;;11.43;9.10;;;;;;;12.59;74.87;101699.34;5034330;28;20069;-47
2020/12/01 07:28:05;;;;;;;14.27;9.50;;;;;;;12.67;75.06;101699.00;5034442;28;20072;-47
2020/12/01 07:30:49;;;;;;;19.20;10.50;;;;;;;12.71;75.01;101694.81;5022958;28;20033;-48
2020/12/01 07:33:19;;;;;;;23.30;15.15;;;;;;;12.72;74.33;101691.06;5030849;28;20052;-53
2020/12/01 07:35:56;;;;;;;24.00;14.48;;;;;;;12.70;74.55;101693.16;5023850;28;20367;-55
2020/12/01 07:38:45;;;;;;;19.30;13.32;;;;;;;12.72;74.47;101701.00;5033561;28;20049;-50
2020/12/01 07:41:14;;;;;;;26.40;14.35;;;;;;;12.75;74.46;101703.25;5033828;28;20128;-53
2020/12/01 07:43:39;;;;;;;16.08;13.27;;;;;;;12.71;74.22;101694.81;5034257;28;20063;-49
2020/12/01 07:46:06;;;;;;;19.83;15.15;;;;;;;12.75;74.57;101705.94;5033820;28;20774;-52
2020/12/01 07:48:32;;;;;;;19.40;17.00;;;;;;;12.75;74.47;101708.63;5028507;28;20043;-49
2020/12/01 07:51:11;;;;;;;28.40;21.33;;;;;;;12.76;74.38;101702.19;5022792;28;20088;-52
2020/12/01 07:53:42;;;;;;;25.42;18.45;;;;;;;12.71;74.50;101692.13;5015444;28;20044;-49
2020/12/01 07:56:11;;;;;;;33.75;21.63;;;;;;;12.79;74.99;101702.53;5033741;28;20033;-52
2020/12/01 07:58:37;;;;;;;29.23;22.40;;;;;;;12.91;74.50;101699.06;5030998;28;20049;-49
2020/12/01 08:01:12;;;;;;;38.40;24.40;;;;;;;13.01;74.05;101696.63;5025008;28;20036;-47
2020/12/01 08:03:38;;;;;;;19.45;17.63;;;;;;;13.02;74.48;101695.56;5033262;28;20428;-46
2020/12/01 08:06:12;;;;;;;23.02;20.00;;;;;;;13.03;74.72;101697.22;5025459;28;20049;-53
2020/12/01 08:08:41;;;;;;;36.75;21.70;;;;;;;13.02;74.98;101696.38;5026984;28;20061;-51
2020/12/01 08:11:12;;;;;;;39.10;23.38;;;;;;;13.01;74.84;101696.63;5029276;28;20037;-49
2020/12/01 08:13:39;;;;;;;31.55;15.45;;;;;;;13.02;75.63;101696.38;5024918;28;20037;-48
2020/12/01 08:16:15;;;;;;;23.70;18.05;;;;;;;12.89;76.05;101698.50;5031782;28;20029;-48
2020/12/01 08:18:40;;;;;;;34.38;22.58;;;;;;;12.97;75.25;101704.34;5023413;28;20037;-49
2020/12/01 08:21:07;;;;;;;24.67;18.98;;;;;;;13.08;75.39;101704.56;5029121;28;20040;-48
2020/12/01 08:23:33;;;;;;;20.40;16.77;;;;;;;12.99;76.13;101704.94;5020619;28;20439;-47
2020/12/01 08:26:18;;;;;;;22.00;17.40;;;;;;;12.94;76.48;101698.59;5014345;28;20108;-47
2020/12/01 08:28:47;;;;;;;31.98;19.42;;;;;;;12.92;76.99;101700.69;5013631;28;20030;-47
2020/12/01 08:31:32;;;;;;;31.75;22.90;;;;;;;13.00;75.89;101700.38;5001331;28;20041;-49
2020/12/01 08:34:22;;;;;;;25.60;19.00;;;;;;;13.09;75.23;101698.97;5023385;28;20382;-47
2020/12/01 08:37:10;;;;;;;20.20;18.20;;;;;;;13.11;75.82;101694.16;5011677;28;20120;-51
2020/12/01 08:39:46;;;;;;;32.22;18.95;;;;;;;13.17;75.38;101697.81;5010791;28;20414;-50
2020/12/01 08:42:20;;;;;;;35.28;20.23;;;;;;;13.22;75.31;101696.06;5014147;28;20046;-51
2020/12/01 08:44:59;;;;;;;30.13;23.45;;;;;;;13.24;75.48;101695.81;5013915;28;20496;-51
2020/12/01 08:47:24;;;;;;;31.40;24.65;;;;;;;13.25;75.99;101689.38;5010934;28;20033;-53
2020/12/01 08:49:51;;;;;;;27.40;22.45;;;;;;;13.33;75.54;101686.38;5031464;28;20485;-55
2020/12/01 08:52:23;;;;;;;53.28;25.60;;;;;;;13.35;75.16;101688.81;5027285;28;20069;-55
2020/12/01 08:55:13;;;;;;;48.58;30.85;;;;;;;13.43;75.52;101686.59;5019879;28;20068;-55
2020/12/01 08:57:39;;;;;;;38.55;24.90;;;;;;;13.42;75.38;101684.94;5022003;28;20041;-51
2020/12/01 09:00:11;;;;;;;44.33;29.77;;;;;;;13.41;75.48;101685.19;5032270;28;20059;-53
2020/12/01 09:02:42;;;;;;;48.03;26.55;;;;;;;13.45;75.31;101689.06;5032413;28;20052;-52
2020/12/01 09:05:30;;;;;;;54.22;29.52;;;;;;;13.44;75.56;101684.72;5031221;28;20034;-53
2020/12/01 09:08:34;;;;;;;68.93;34.03;;;;;;;13.46;75.46;101688.00;5023792;28;20046;-50
2020/12/01 09:11:27;;;;;;;39.83;25.05;;;;;;;13.48;75.70;101688.59;5025903;28;20067;-52
2020/12/01 09:22:25;;;;;;;50.90;29.50;;;;;;;13.62;75.57;101683.75;5032130;28;19939;-54
2020/12/01 09:25:02;;;;;;;34.72;31.08;;;;;;;13.67;76.15;101683.88;5023660;28;20081;-51
2020/12/01 09:27:32;;;;;;;58.00;37.42;;;;;;;13.67;76.29;101683.06;5032167;28;20459;-55
2020/12/01 09:29:58;;;;;;;49.47;30.10;;;;;;;13.68;75.82;101677.44;5031772;28;20025;-51
2020/12/01 09:32:24;;;;;;;34.05;26.10;;;;;;;13.78;75.87;101674.97;5031705;28;20037;-50
2020/12/01 09:34:50;;;;;;;80.85;39.78;;;;;;;13.82;75.67;101677.19;5032008;28;20523;-51
2020/12/01 09:37:17;;;;;;;32.88;28.38;;;;;;;13.79;76.84;101684.66;5031739;28;20037;-51
2020/12/01 09:39:42;;;;;;;44.30;36.40;;;;;;;13.83;76.48;101674.22;5031535;28;20045;-54
2020/12/01 09:42:52;;;;;;;56.45;39.42;;;;;;;13.85;76.91;101672.13;5031755;28;20133;-51
2020/12/01 09:45:09;;;;;;;59.55;35.53;;;;;;;13.87;77.09;101670.00;5028474;28;20052;-52
2020/12/01 09:50:06;;;;;;;42.50;29.73;;;;;;;14.00;77.82;101671.59;5031073;28;20041;-51
2020/12/01 09:52:42;;;;;;;35.55;27.48;;;;;;;14.04;76.18;101677.34;5031858;28;20033;-51
2020/12/01 09:55:35;;;;;;;39.90;27.60;;;;;;;14.12;77.69;101676.97;5031500;28;20033;-52
2020/12/01 10:08:25;;;;;;;30.85;20.33;;;;;;;14.16;77.83;101662.78;5031202;28;19927;-50
2020/12/01 10:11:06;;;;;;;39.60;26.42;;;;;;;14.19;77.24;101653.38;5018873;28;20046;-52
2020/12/01 10:37:02;;;;;;;52.75;37.47;;;;;;;14.72;79.76;101619.75;5031073;28;20038;-52
2020/12/01 10:39:28;;;;;;;48.80;26.30;;;;;;;14.87;77.67;101624.59;5027267;28;20121;-53
2020/12/01 10:41:53;;;;;;;47.33;28.67;;;;;;;15.13;78.65;101617.69;5031137;28;20033;-55
2020/12/01 10:44:19;;;;;;;44.80;31.00;;;;;;;15.36;78.16;101609.59;5030986;28;20072;-55
2020/12/01 10:46:46;;;;;;;19.80;16.65;;;;;;;15.52;76.25;101607.94;5030960;28;20432;-49
2020/12/01 10:49:13;;;;;;;14.13;10.55;;;;;;;15.72;75.00;101602.75;5031019;28;20029;-52
2020/12/01 10:51:38;;;;;;;17.52;15.75;;;;;;;15.93;73.74;101582.19;5025522;28;20025;-49
2020/12/01 10:54:03;;;;;;;16.80;12.57;;;;;;;16.16;73.13;101583.78;5031585;28;20041;-49
2020/12/01 10:56:29;;;;;;;18.60;15.43;;;;;;;16.17;73.76;101571.91;5031400;28;20037;-49
2020/12/01 10:58:54;;;;;;;29.17;12.00;;;;;;;16.47;72.81;101565.13;5025365;28;20033;-50
2020/12/01 11:01:20;;;;;;;24.65;16.90;;;;;;;16.76;72.56;101564.75;5029434;28;20139;-52
2020/12/01 11:03:45;;;;;;;19.48;15.35;;;;;;;17.14;71.17;101562.88;5025508;28;20041;-54
2020/12/01 11:06:11;;;;;;;16.98;11.70;;;;;;;17.23;71.13;101555.84;5015318;28;20061;-54
2020/12/01 11:08:36;;;;;;;26.70;11.70;;;;;;;17.26;69.98;101549.91;5016004;28;20060;-52
2020/12/01 11:11:02;;;;;;;11.93;7.90;;;;;;;17.17;70.00;101554.22;5016872;28;20034;-54
2020/12/01 11:13:27;;;;;;;10.48;7.47;;;;;;;17.26;69.94;101546.41;5021544;28;20147;-52
2020/12/01 11:15:53;;;;;;;6.70;5.93;;;;;;;17.48;68.56;101544.31;5019406;28;20513;-53
2020/12/01 11:18:18;;;;;;;15.82;7.90;;;;;;;17.35;69.10;101542.88;5021913;28;20033;-52
2020/12/01 11:20:44;;;;;;;9.93;6.50;;;;;;;17.55;68.79;101533.22;5019476;28;20033;-51
2020/12/01 11:23:09;;;;;;;6.93;6.13;;;;;;;17.86;67.38;101525.16;5020979;28;20037;-50
2020/12/01 11:25:35;;;;;;;7.40;5.97;;;;;;;17.93;67.24;101520.28;5019698;28;20084;-53
2020/12/01 11:28:00;;;;;;;9.38;8.35;;;;;;;17.68;67.18;101511.00;5019344;28;20426;-54
2020/12/01 11:30:26;;;;;;;10.57;7.15;;;;;;;17.63;66.86;101515.59;5021558;28;20465;-53
2020/12/01 11:32:51;;;;;;;14.07;10.98;;;;;;;17.77;67.31;101511.28;5030382;28;20108;-52
2020/12/01 11:35:20;;;;;;;21.25;16.70;;;;;;;17.97;65.97;101507.84;5033491;28;20481;-48
2020/12/01 11:37:45;;;;;;;26.58;22.00;;;;;;;18.06;65.74;101508.09;5034238;28;20436;-49
2020/12/01 11:40:11;;;;;;;38.10;26.88;;;;;;;17.98;66.31;101501.31;5026412;28;20037;-52
2020/12/01 11:42:37;;;;;;;23.33;20.88;;;;;;;18.13;65.44;101497.78;5034035;28;20045;-51
2020/12/01 11:45:05;;;;;;;20.58;13.77;;;;;;;18.31;64.86;101488.28;5033976;28;20060;-49
2020/12/01 11:47:30;;;;;;;35.10;29.52;;;;;;;18.40;63.96;101478.47;5029589;28;20034;-51
2020/12/01 11:49:56;;;;;;;10.85;9.95;;;;;;;18.98;62.32;101469.13;5027212;28;20076;-52
2020/12/01 11:52:21;;;;;;;11.73;7.95;;;;;;;19.05;60.89;101458.75;5034225;28;20029;-52
2020/12/01 11:54:47;;;;;;;15.32;7.65;;;;;;;19.38;60.17;101461.84;5026042;28;20475;-53
2020/12/01 11:57:12;;;;;;;17.23;9.52;;;;;;;19.60;58.92;101448.66;5027939;28;20041;-50
2020/12/01 11:59:38;;;;;;;19.15;10.75;;;;;;;19.56;58.90;101450.31;5033863;28;20045;-52
2020/12/01 12:02:03;;;;;;;9.77;6.07;;;;;;;19.62;58.30;101440.22;5033471;28;20033;-56
2020/12/01 12:04:29;;;;;;;13.85;6.13;;;;;;;19.96;56.71;101439.44;5033828;28;20033;-51
2020/12/01 12:06:54;;;;;;;9.88;7.63;;;;;;;19.92;57.39;101438.38;5033145;28;20116;-52
2020/12/01 12:09:20;;;;;;;9.07;8.07;;;;;;;20.07;56.26;101434.69;5032308;28;20038;-48
2020/12/01 12:11:45;;;;;;;12.30;8.45;;;;;;;20.03;57.79;101434.47;5033635;28;20029;-54
2020/12/01 12:14:11;;;;;;;7.75;6.22;;;;;;;20.02;56.80;101435.53;5027003;28;20068;-54
2020/12/01 12:16:37;;;;;;;20.98;6.43;;;;;;;19.91;55.47;101434.81;5027990;28;20370;-53
2020/12/01 12:19:03;;;;;;;17.90;9.68;;;;;;;20.01;55.82;101421.13;5033697;28;20038;-52